Terminal Aerodrome Forecast
Issued by NWS

Home | Current Version | Previous Version | Text Only | Print | Product List | Glossary On
Versions: 1 2 3 4 5 6 7 8 9 10 11 12 13 14 15
000
FTUS43 KIWX 020500
TAFSBN
TAF
KSBN 020540Z 0206/0306 26009KT P6SM SCT020
      TEMPO 0206/0209 BKN020
     FM021200 29008KT P6SM SCT030
     FM030000 16003KT P6SM OVC100=

USA.gov is the U.S. government's official web portal to all federal, state and local government web resources and services.